Time;durP1;ratioP1;P1;durP2;ratioP2;P2;SDS_P1;SDS_P2;PMS_P1;PMS_P2;Temp;Humidity;BMP_temperature;BMP_pressure;BME280_temperature;BME280_humidity;BME280_pressure;Samples;Min_cycle;Max_cycle;Signal;HPM_P1;HPM_P2
2022/01/30 00:00:47;;;;;;;;;;;;;;;-4.86;66.43;95757.59;4995648;28;972;-49
2022/01/30 00:03:15;;;;;;;;;;;;;;;-5.04;67.12;95759.09;4995869;28;1195;-48
2022/01/30 00:05:41;;;;;;;;;;;;;;;-4.98;67.96;95751.03;4995312;28;1233;-49
2022/01/30 00:08:07;;;;;;;;;;;;;;;-4.99;67.13;95755.41;4995513;28;983;-49
2022/01/30 00:10:38;;;;;;;;;;;;;;;-4.93;67.57;95757.81;4995305;28;1013;-49
2022/01/30 00:13:06;;;;;;;;;;;;;;;-4.95;66.95;95759.63;4994986;28;1992;-49
2022/01/30 00:18:28;;;;;;;;;;;;;;;-5.01;68.03;95748.53;4994857;28;1988;-49
2022/01/30 00:23:28;;;;;;;;;;;;;;;-4.98;67.01;95731.03;4995013;28;978;-49
2022/01/30 00:25:56;;;;;;;;;;;;;;;-4.99;66.98;95738.88;4994815;28;1232;-49
2022/01/30 00:28:25;;;;;;;;;;;;;;;-4.99;67.06;95733.69;4995209;28;1050;-49
2022/01/30 00:30:51;;;;;;;;;;;;;;;-5.22;66.79;95735.31;4995060;28;1149;-49
2022/01/30 00:33:17;;;;;;;;;;;;;;;-5.46;67.78;95730.91;4977508;28;1991;-49
2022/01/30 00:35:43;;;;;;;;;;;;;;;-5.49;67.58;95730.13;4994596;28;1984;-49
2022/01/30 00:38:15;;;;;;;;;;;;;;;-5.43;67.85;95736.03;4977468;28;1034;-49
2022/01/30 00:40:44;;;;;;;;;;;;;;;-5.38;67.61;95726.31;4994947;28;1062;-49
2022/01/30 00:43:10;;;;;;;;;;;;;;;-5.40;67.58;95721.16;4994246;28;1173;-49
2022/01/30 00:45:36;;;;;;;;;;;;;;;-5.44;68.53;95714.34;4994966;28;990;-49
2022/01/30 00:48:02;;;;;;;;;;;;;;;-5.34;68.27;95712.28;4993808;28;1148;-50
2022/01/30 00:50:28;;;;;;;;;;;;;;;-5.33;67.98;95709.63;5003242;28;1281;-49
2022/01/30 00:52:55;;;;;;;;;;;;;;;-5.47;67.34;95705.78;5013552;28;938;-49
2022/01/30 00:55:22;;;;;;;;;;;;;;;-5.58;67.66;95716.53;5013536;28;1985;-50
2022/01/30 00:57:48;;;;;;;;;;;;;;;-5.69;67.51;95717.75;5013514;28;1097;-49
2022/01/30 01:00:15;;;;;;;;;;;;;;;-5.73;67.89;95712.66;5014179;28;991;-49
2022/01/30 01:02:42;;;;;;;;;;;;;;;-5.97;68.52;95709.13;5013834;28;1054;-49
2022/01/30 01:05:08;;;;;;;;;;;;;;;-5.83;69.31;95706.06;5009069;28;1362;-49
2022/01/30 01:07:35;;;;;;;;;;;;;;;-5.58;68.87;95709.56;5013936;28;1041;-49
2022/01/30 01:10:11;;;;;;;;;;;;;;;-5.59;68.01;95707.03;5013788;28;1129;-49
2022/01/30 01:25:55;;;;;;;;;;;;;;;-5.62;67.41;95670.66;5013387;28;1116;-49
2022/01/30 01:28:21;;;;;;;;;;;;;;;-5.67;67.73;95670.81;5013809;28;1014;-49
2022/01/30 01:30:47;;;;;;;;;;;;;;;-5.89;67.92;95663.69;5013327;28;1248;-49
2022/01/30 01:33:14;;;;;;;;;;;;;;;-6.10;69.47;95660.03;5013730;28;1910;-49
2022/01/30 01:35:40;;;;;;;;;;;;;;;-6.10;69.35;95657.44;5013600;28;1264;-49
2022/01/30 01:38:11;;;;;;;;;;;;;;;-6.28;69.46;95656.28;5013490;28;1015;-49
2022/01/30 01:40:37;;;;;;;;;;;;;;;-6.05;69.69;95661.63;5013467;28;1129;-49
2022/01/30 01:43:03;;;;;;;;;;;;;;;-5.99;69.13;95651.06;5012868;28;1094;-49
2022/01/30 01:45:35;;;;;;;;;;;;;;;-6.00;68.70;95646.72;5012917;28;1126;-49
2022/01/30 01:48:07;;;;;;;;;;;;;;;-6.25;68.05;95633.66;4994576;28;3041;-49
2022/01/30 01:50:40;;;;;;;;;;;;;;;-6.53;69.54;95621.47;5003016;28;1141;-49
2022/01/30 01:53:08;;;;;;;;;;;;;;;-6.44;69.53;95613.41;5012847;28;1226;-49
2022/01/30 01:55:34;;;;;;;;;;;;;;;-6.29;68.92;95618.13;5012977;28;1021;-49
2022/01/30 01:58:00;;;;;;;;;;;;;;;-6.19;68.47;95610.88;5013342;28;1050;-49
2022/01/30 02:00:26;;;;;;;;;;;;;;;-6.22;68.11;95610.13;5013451;28;1038;-49
2022/01/30 02:02:54;;;;;;;;;;;;;;;-6.18;68.90;95615.19;5013263;28;1073;-49
2022/01/30 02:05:23;;;;;;;;;;;;;;;-6.25;69.67;95613.69;5013300;28;1074;-49
2022/01/30 02:10:47;;;;;;;;;;;;;;;-6.24;69.52;95591.97;5013512;28;1292;-49
2022/01/30 02:14:14;;;;;;;;;;;;;;;-6.18;69.63;95602.19;5012607;28;1997;-49
2022/01/30 02:26:59;;;;;;;;;;;;;;;-6.46;68.24;95596.16;5013047;28;1153;-49
2022/01/30 02:29:25;;;;;;;;;;;;;;;-6.53;69.00;95596.31;5012893;28;1078;-49
2022/01/30 02:31:55;;;;;;;;;;;;;;;-6.46;69.29;95609.16;5012982;28;1112;-49
2022/01/30 02:34:26;;;;;;;;;;;;;;;-6.37;69.34;95608.88;5012906;28;1999;-49
2022/01/30 02:36:53;;;;;;;;;;;;;;;-6.54;68.28;95609.38;5012917;28;1100;-49
2022/01/30 02:39:19;;;;;;;;;;;;;;;-6.77;69.61;95612.66;5012824;28;1033;-49
2022/01/30 02:41:46;;;;;;;;;;;;;;;-6.83;70.17;95603.28;5014080;28;1324;-49
2022/01/30 02:44:26;;;;;;;;;;;;;;;-6.70;70.84;95595.97;5016612;28;976;-49
2022/01/30 02:46:55;;;;;;;;;;;;;;;-6.69;70.76;95587.28;5016489;28;1073;-49
2022/01/30 02:51:56;;;;;;;;;;;;;;;-6.40;69.87;95583.78;4996592;28;1139;-49
2022/01/30 02:54:22;;;;;;;;;;;;;;;-6.39;68.58;95592.44;4996630;28;1984;-49
2022/01/30 02:56:48;;;;;;;;;;;;;;;-6.58;68.28;95584.34;4996685;28;1074;-49
2022/01/30 02:59:15;;;;;;;;;;;;;;;-6.93;69.65;95568.91;4996603;28;1954;-48
2022/01/30 03:01:41;;;;;;;;;;;;;;;-6.87;70.97;95565.28;4996654;28;1017;-49
2022/01/30 03:04:08;;;;;;;;;;;;;;;-6.62;70.78;95560.22;4996324;28;998;-49
2022/01/30 03:06:34;;;;;;;;;;;;;;;-6.33;70.55;95553.22;4996465;28;1054;-49
2022/01/30 03:09:01;;;;;;;;;;;;;;;-6.36;69.61;95548.09;4996583;28;999;-49
2022/01/30 03:11:27;;;;;;;;;;;;;;;-6.54;68.54;95553.00;4996639;28;1012;-49
2022/01/30 03:13:53;;;;;;;;;;;;;;;-6.73;68.70;95544.94;4978659;28;1923;-49
2022/01/30 03:16:21;;;;;;;;;;;;;;;-6.72;69.05;95544.00;4996510;28;1002;-49
2022/01/30 03:18:47;;;;;;;;;;;;;;;-6.61;69.60;95545.44;4996155;28;1070;-49
2022/01/30 03:21:13;;;;;;;;;;;;;;;-6.61;69.19;95541.09;4996102;28;1058;-49
2022/01/30 03:23:39;;;;;;;;;;;;;;;-6.73;69.73;95552.72;4996462;28;1065;-49
2022/01/30 03:26:06;;;;;;;;;;;;;;;-6.65;69.98;95555.09;4996149;28;1057;-49
2022/01/30 03:28:32;;;;;;;;;;;;;;;-6.43;69.32;95557.00;4996306;28;987;-49
2022/01/30 03:31:03;;;;;;;;;;;;;;;-6.44;69.33;95566.56;4995938;28;1058;-49
2022/01/30 03:33:29;;;;;;;;;;;;;;;-6.71;68.20;95560.50;4996053;28;1906;-49
2022/01/30 03:35:55;;;;;;;;;;;;;;;-6.75;69.43;95566.69;4995807;28;1144;-49
2022/01/30 03:38:22;;;;;;;;;;;;;;;-6.82;70.36;95567.75;4996018;28;1038;-49
2022/01/30 03:40:48;;;;;;;;;;;;;;;-6.81;68.83;95564.25;4995872;28;1026;-49
2022/01/30 03:43:14;;;;;;;;;;;;;;;-6.93;68.42;95561.13;4995576;28;1260;-49
2022/01/30 03:45:41;;;;;;;;;;;;;;;-7.20;69.13;95554.16;4995860;28;1030;-49
2022/01/30 03:48:07;;;;;;;;;;;;;;;-7.40;70.12;95552.13;4995678;28;1051;-49
2022/01/30 03:50:33;;;;;;;;;;;;;;;-7.52;70.44;95550.72;5005269;28;1227;-49
2022/01/30 03:52:59;;;;;;;;;;;;;;;-7.52;70.44;95550.72;5014726;28;1292;-49
2022/01/30 03:55:25;;;;;;;;;;;;;;;-7.32;70.61;95561.41;5015196;28;1902;-49
2022/01/30 03:57:51;;;;;;;;;;;;;;;-7.18;70.54;95574.00;5015303;28;971;-49
2022/01/30 04:00:18;;;;;;;;;;;;;;;-7.16;70.84;95563.56;5015133;28;1025;-49
2022/01/30 04:02:45;;;;;;;;;;;;;;;-7.03;69.89;95569.25;5015068;28;955;-49
2022/01/30 04:05:11;;;;;;;;;;;;;;;-7.38;69.73;95568.50;5015030;28;1092;-49
2022/01/30 04:07:37;;;;;;;;;;;;;;;-7.53;70.28;95570.66;5015225;28;1047;-49
2022/01/30 04:10:04;;;;;;;;;;;;;;;-7.34;70.37;95576.19;5014815;28;1081;-49
2022/01/30 04:12:30;;;;;;;;;;;;;;;-7.26;70.27;95584.59;5014902;28;1203;-49
2022/01/30 04:14:56;;;;;;;;;;;;;;;-7.43;69.72;95567.81;5014653;28;1906;-49
2022/01/30 04:17:23;;;;;;;;;;;;;;;-7.31;69.95;95563.09;5014876;28;1006;-49
2022/01/30 04:19:49;;;;;;;;;;;;;;;-7.32;69.79;95568.31;5014612;28;1886;-48
2022/01/30 04:22:15;;;;;;;;;;;;;;;-7.12;70.41;95555.63;5014983;28;1040;-49
2022/01/30 04:24:41;;;;;;;;;;;;;;;-7.12;69.28;95549.56;5014746;28;1105;-49
2022/01/30 04:27:08;;;;;;;;;;;;;;;-7.21;68.51;95545.47;5014625;28;990;-49
2022/01/30 04:29:34;;;;;;;;;;;;;;;-7.47;69.75;95554.88;5014749;28;1013;-49
2022/01/30 04:32:00;;;;;;;;;;;;;;;-7.53;70.19;95549.00;5014327;28;1036;-49
2022/01/30 04:34:27;;;;;;;;;;;;;;;-7.73;70.64;95537.44;5014604;28;1903;-49
2022/01/30 04:37:14;;;;;;;;;;;;;;;-7.85;71.02;95536.03;5014482;28;1025;-49
2022/01/30 04:56:49;;;;;;;;;;;;;;;-7.49;70.95;95483.13;4994558;28;1077;-49
2022/01/30 05:04:43;;;;;;;;;;;;;;;-7.18;70.77;95488.22;4993630;28;1034;-49
2022/01/30 05:09:35;;;;;;;;;;;;;;;-7.02;70.66;95506.81;4994438;28;1041;-49
2022/01/30 05:12:01;;;;;;;;;;;;;;;-6.91;69.89;95522.94;4993880;28;1038;-49
2022/01/30 05:14:33;;;;;;;;;;;;;;;-6.61;69.79;95532.44;4994393;28;1946;-49
2022/01/30 05:17:00;;;;;;;;;;;;;;;-6.59;70.04;95531.47;4994053;28;1108;-49
2022/01/30 05:19:26;;;;;;;;;;;;;;;-6.78;70.92;95538.16;4994260;28;1045;-49
2022/01/30 05:21:52;;;;;;;;;;;;;;;-6.75;70.35;95544.13;4993982;28;2002;-49
2022/01/30 05:24:19;;;;;;;;;;;;;;;-6.76;69.40;95528.56;4994002;28;1105;-49
2022/01/30 05:26:45;;;;;;;;;;;;;;;-6.94;69.80;95506.59;4993835;28;1034;-49
2022/01/30 05:29:11;;;;;;;;;;;;;;;-7.00;70.45;95496.38;4994094;28;1058;-49
2022/01/30 05:31:37;;;;;;;;;;;;;;;-6.98;71.03;95485.03;4993877;28;1057;-49
2022/01/30 05:34:03;;;;;;;;;;;;;;;-7.18;71.65;95471.81;4993873;28;1987;-49
2022/01/30 05:36:30;;;;;;;;;;;;;;;-7.08;72.26;95468.00;4993973;28;978;-48
2022/01/30 05:38:57;;;;;;;;;;;;;;;-7.13;71.84;95451.69;4993901;28;1001;-49
2022/01/30 05:41:24;;;;;;;;;;;;;;;-7.14;72.32;95437.88;4993554;28;1877;-49
2022/01/30 05:43:55;;;;;;;;;;;;;;;-6.94;72.51;95429.44;4993884;28;1217;-49
2022/01/30 05:46:36;;;;;;;;;;;;;;;-6.87;72.15;95453.47;4993865;28;1042;-49
2022/01/30 05:49:03;;;;;;;;;;;;;;;-6.70;72.18;95473.75;4993712;28;1062;-49
2022/01/30 05:51:29;;;;;;;;;;;;;;;-6.53;71.49;95491.41;5010755;28;1152;-49
2022/01/30 05:53:55;;;;;;;;;;;;;;;-6.54;71.30;95518.34;5013253;28;1914;-49
2022/01/30 05:56:21;;;;;;;;;;;;;;;-6.48;71.24;95526.78;5013431;28;1094;-49
2022/01/30 05:58:47;;;;;;;;;;;;;;;-6.25;70.83;95527.78;5013443;28;1053;-49
2022/01/30 06:01:13;;;;;;;;;;;;;;;-6.01;70.70;95531.31;5013301;28;1066;-49
2022/01/30 06:03:39;;;;;;;;;;;;;;;-5.97;70.15;95521.66;5013230;28;978;-49
2022/01/30 06:06:07;;;;;;;;;;;;;;;-6.21;69.71;95505.97;5013154;28;991;-49
2022/01/30 06:11:10;;;;;;;;;;;;;;;-6.30;70.93;95478.50;5013223;28;1096;-49
2022/01/30 06:13:36;;;;;;;;;;;;;;;-6.32;71.36;95488.13;5013336;28;1918;-48
2022/01/30 06:16:02;;;;;;;;;;;;;;;-6.15;71.72;95481.47;5014970;28;1085;-49
2022/01/30 06:18:28;;;;;;;;;;;;;;;-5.93;71.37;95491.97;5016835;28;942;-49
2022/01/30 06:20:54;;;;;;;;;;;;;;;-5.64;70.81;95482.28;5016919;28;1046;-49
2022/01/30 06:23:22;;;;;;;;;;;;;;;-5.38;70.11;95479.56;5017072;28;998;-49
2022/01/30 06:25:49;;;;;;;;;;;;;;;-5.27;71.07;95473.06;5017047;28;969;-49
2022/01/30 06:28:15;;;;;;;;;;;;;;;-5.37;71.36;95485.59;5016900;28;1058;-49
2022/01/30 06:30:41;;;;;;;;;;;;;;;-5.30;71.50;95490.53;5016887;28;1025;-49
2022/01/30 06:33:07;;;;;;;;;;;;;;;-5.17;71.63;95495.31;5016452;28;2000;-49
2022/01/30 06:35:33;;;;;;;;;;;;;;;-5.10;71.40;95500.22;4999537;28;1911;-49
2022/01/30 06:38:01;;;;;;;;;;;;;;;-5.06;71.66;95506.19;5016713;28;1046;-49
2022/01/30 06:40:27;;;;;;;;;;;;;;;-4.92;70.54;95492.59;5016672;28;1132;-49
2022/01/30 06:42:53;;;;;;;;;;;;;;;-4.98;71.27;95483.25;5016027;28;1087;-49
2022/01/30 06:45:19;;;;;;;;;;;;;;;-4.96;71.45;95486.66;5016687;28;943;-49
2022/01/30 06:47:46;;;;;;;;;;;;;;;-4.98;71.50;95477.19;5016410;28;1009;-49
2022/01/30 06:50:13;;;;;;;;;;;;;;;-4.82;70.69;95464.38;5009528;28;1523;-49
2022/01/30 06:52:39;;;;;;;;;;;;;;;-4.67;71.14;95442.91;4996782;28;1199;-49
2022/01/30 06:55:05;;;;;;;;;;;;;;;-4.61;71.00;95460.94;4996665;28;1911;-49
2022/01/30 06:57:32;;;;;;;;;;;;;;;-4.49;70.30;95470.03;4996779;28;974;-49
2022/01/30 06:59:58;;;;;;;;;;;;;;;-4.31;70.25;95473.63;4996758;28;991;-50
2022/01/30 07:02:24;;;;;;;;;;;;;;;-4.16;69.99;95469.53;4996619;28;1046;-50
2022/01/30 07:04:50;;;;;;;;;;;;;;;-4.26;70.52;95476.06;4996522;28;1061;-50
2022/01/30 07:07:16;;;;;;;;;;;;;;;-4.27;71.23;95474.34;4996459;28;1058;-50
2022/01/30 07:09:42;;;;;;;;;;;;;;;-4.28;71.52;95473.50;4996626;28;1069;-50
2022/01/30 07:12:08;;;;;;;;;;;;;;;-4.32;71.59;95466.72;4996216;28;1086;-49
2022/01/30 07:14:34;;;;;;;;;;;;;;;-4.29;71.67;95458.75;4996398;28;1914;-49
2022/01/30 07:17:00;;;;;;;;;;;;;;;-4.26;71.77;95437.75;4996409;28;1041;-49
2022/01/30 07:19:26;;;;;;;;;;;;;;;-4.33;72.50;95442.34;4996092;28;1125;-50
2022/01/30 07:21:53;;;;;;;;;;;;;;;-4.39;72.14;95441.78;4996492;28;991;-50
2022/01/30 07:24:19;;;;;;;;;;;;;;;-4.29;72.20;95455.28;4996270;28;974;-50
2022/01/30 07:26:45;;;;;;;;;;;;;;;-4.25;72.13;95455.13;4995528;28;983;-50
2022/01/30 07:29:11;;;;;;;;;;;;;;;-4.33;72.49;95444.13;4995983;28;1030;-50
2022/01/30 07:31:37;;;;;;;;;;;;;;;-4.33;72.44;95444.13;4996178;28;1036;-50
2022/01/30 07:34:03;;;;;;;;;;;;;;;-4.24;72.80;95446.34;4995663;28;1931;-50
2022/01/30 07:36:33;;;;;;;;;;;;;;;-4.11;72.27;95451.91;4996263;28;978;-50
2022/01/30 07:38:59;;;;;;;;;;;;;;;-4.13;71.85;95454.59;4995957;28;975;-51
2022/01/30 07:41:25;;;;;;;;;;;;;;;-4.08;71.52;95443.94;4978699;28;1226;-51
2022/01/30 07:43:51;;;;;;;;;;;;;;;-3.81;71.26;95444.53;4995555;28;994;-50
2022/01/30 07:46:17;;;;;;;;;;;;;;;-3.38;69.31;95445.22;4995788;28;1103;-49
2022/01/30 07:48:43;;;;;;;;;;;;;;;-3.04;68.10;95454.13;4995631;28;1074;-49
2022/01/30 07:51:09;;;;;;;;;;;;;;;-2.16;65.80;95440.28;5010460;28;1348;-55
2022/01/30 07:53:36;;;;;;;;;;;;;;;-0.65;60.60;95448.00;5015243;28;1911;-49
2022/01/30 07:56:03;;;;;;;;;;;;;;;0.30;57.24;95448.72;5015234;28;1042;-49
2022/01/30 07:58:29;;;;;;;;;;;;;;;-0.24;57.78;95429.06;5015122;28;970;-49
2022/01/30 08:00:55;;;;;;;;;;;;;;;-0.60;59.46;95432.84;5015094;28;969;-49
2022/01/30 08:03:22;;;;;;;;;;;;;;;-1.17;60.51;95434.31;5014846;28;1113;-49
2022/01/30 08:05:48;;;;;;;;;;;;;;;-1.34;60.46;95441.31;5014931;28;1054;-49
2022/01/30 08:08:14;;;;;;;;;;;;;;;-1.25;61.49;95440.81;5015015;28;975;-50
2022/01/30 08:10:40;;;;;;;;;;;;;;;-0.84;60.15;95440.31;5014951;28;1126;-50
2022/01/30 08:13:07;;;;;;;;;;;;;;;-0.41;59.44;95440.53;5014688;28;1033;-50
2022/01/30 08:15:33;;;;;;;;;;;;;;;-0.78;58.62;95439.13;5014785;28;1993;-50
2022/01/30 08:17:59;;;;;;;;;;;;;;;-1.09;59.72;95442.59;5014674;28;1050;-50
2022/01/30 08:20:27;;;;;;;;;;;;;;;-0.85;58.63;95457.00;5015156;28;1046;-50
2022/01/30 08:22:54;;;;;;;;;;;;;;;-0.37;57.61;95456.97;5014923;28;1050;-50
2022/01/30 08:25:21;;;;;;;;;;;;;;;-0.18;57.52;95450.69;5014743;28;1068;-50
2022/01/30 08:27:47;;;;;;;;;;;;;;;-0.11;57.26;95454.66;5014758;28;1061;-49
2022/01/30 08:30:14;;;;;;;;;;;;;;;-0.17;56.67;95437.44;5014420;28;1315;-49
2022/01/30 08:32:44;;;;;;;;;;;;;;;1.40;53.46;95434.94;5014745;28;1361;-49
2022/01/30 08:35:11;;;;;;;;;;;;;;;0.32;55.22;95433.69;5014554;28;1915;-49
2022/01/30 08:37:37;;;;;;;;;;;;;;;-0.85;58.68;95427.31;5002025;28;1224;-49
2022/01/30 08:40:09;;;;;;;;;;;;;;;0.06;57.70;95435.22;4994165;28;1234;-49
2022/01/30 08:42:35;;;;;;;;;;;;;;;1.40;52.88;95438.41;5006839;28;4616;-49
2022/01/30 08:45:01;;;;;;;;;;;;;;;1.85;52.19;95432.91;4993437;28;1125;-49
2022/01/30 08:47:27;;;;;;;;;;;;;;;2.43;50.52;95430.78;5004463;28;3735;-49
2022/01/30 08:49:53;;;;;;;;;;;;;;;3.19;48.91;95415.81;5002124;28;1085;-49
2022/01/30 08:52:19;;;;;;;;;;;;;;;4.85;45.09;95409.56;4994525;28;1225;-49
2022/01/30 08:54:46;;;;;;;;;;;;;;;6.23;42.07;95402.91;4994237;28;1910;-49
2022/01/30 08:57:13;;;;;;;;;;;;;;;8.21;38.07;95410.50;4994481;28;1082;-49
2022/01/30 08:59:39;;;;;;;;;;;;;;;9.88;34.72;95417.88;5004755;28;3478;-49
2022/01/30 09:02:05;;;;;;;;;;;;;;;11.11;32.19;95408.25;4996675;28;1053;-49
2022/01/30 09:04:31;;;;;;;;;;;;;;;11.37;32.44;95398.53;4994332;28;968;-49
2022/01/30 09:06:57;;;;;;;;;;;;;;;10.92;33.01;95397.75;4994518;28;991;-49
2022/01/30 09:09:23;;;;;;;;;;;;;;;9.52;34.80;95404.47;4993927;28;1050;-49
2022/01/30 09:11:49;;;;;;;;;;;;;;;12.08;31.49;95400.84;4993692;28;1134;-49
2022/01/30 09:14:15;;;;;;;;;;;;;;;13.58;29.86;95395.19;4993784;28;2001;-50
2022/01/30 09:16:42;;;;;;;;;;;;;;;13.48;27.75;95398.91;4993958;28;1108;-47
2022/01/30 09:19:08;;;;;;;;;;;;;;;13.87;28.05;95399.97;4993730;28;1058;-46
2022/01/30 09:21:34;;;;;;;;;;;;;;;13.13;28.30;95402.84;4994045;28;1123;-47
2022/01/30 09:24:00;;;;;;;;;;;;;;;16.50;24.81;95392.84;4976760;28;1055;-47
2022/01/30 09:26:26;;;;;;;;;;;;;;;18.76;22.29;95383.59;4993969;28;1106;-47
2022/01/30 09:28:52;;;;;;;;;;;;;;;17.91;22.21;95384.00;4993651;28;990;-47
2022/01/30 09:31:18;;;;;;;;;;;;;;;18.60;21.69;95380.25;4993364;28;1121;-47
2022/01/30 09:33:44;;;;;;;;;;;;;;;20.09;20.59;95389.75;4993851;28;1906;-47
2022/01/30 09:36:10;;;;;;;;;;;;;;;18.61;22.13;95391.91;5004273;28;3483;-46
2022/01/30 09:38:36;;;;;;;;;;;;;;;17.35;22.78;95376.75;5013679;28;1054;-47
2022/01/30 09:44:24;;;;;;;;;;;;;;;16.73;24.72;95351.31;3269944;28;2999;-49
2022/01/30 09:46:51;;;;;;;;;;;;;;;18.89;21.83;95352.00;5012790;28;1251;-49
2022/01/30 09:49:21;;;;;;;;;;;;;;;16.17;23.93;95338.53;5011042;28;10243;-50
2022/01/30 09:51:47;;;;;;;;;;;;;;;14.95;26.08;95345.22;4998309;28;10985;-49
2022/01/30 09:54:13;;;;;;;;;;;;;;;14.69;25.88;95326.78;5000531;28;976;-49
2022/01/30 09:56:40;;;;;;;;;;;;;;;15.14;25.10;95308.00;5011176;28;1466;-49
2022/01/30 09:59:06;;;;;;;;;;;;;;;15.87;25.05;95300.03;5019776;28;1107;-49
2022/01/30 10:01:33;;;;;;;;;;;;;;;12.98;27.86;95298.03;5019678;28;2002;-49
2022/01/30 10:04:00;;;;;;;;;;;;;;;8.40;34.65;95281.75;5019790;28;1915;-49
2022/01/30 10:06:32;;;;;;;;;;;;;;;6.15;39.11;95275.28;5019704;28;1120;-48
2022/01/30 10:09:00;;;;;;;;;;;;;;;9.25;35.24;95247.84;5019698;28;1026;-48
2022/01/30 10:11:46;;;;;;;;;;;;;;;16.36;24.72;95261.53;5019598;28;1049;-49
2022/01/30 10:14:16;;;;;;;;;;;;;;;19.39;20.94;95263.91;5019737;28;1073;-49
2022/01/30 10:16:50;;;;;;;;;;;;;;;21.04;19.62;95274.06;5019194;28;1267;-50
2022/01/30 10:19:20;;;;;;;;;;;;;;;21.40;18.82;95267.00;5019162;28;1190;-50
2022/01/30 10:21:50;;;;;;;;;;;;;;;20.36;19.31;95259.31;5019356;28;1062;-50
2022/01/30 10:24:20;;;;;;;;;;;;;;;19.57;20.13;95244.25;5019919;28;1987;-50
2022/01/30 10:26:46;;;;;;;;;;;;;;;16.43;23.09;95232.75;5019448;28;1042;-48
2022/01/30 10:29:18;;;;;;;;;;;;;;;13.02;27.65;95221.53;5019640;28;1061;-49
2022/01/30 10:31:57;;;;;;;;;;;;;;;10.13;31.26;95207.06;5019029;28;1222;-48
2022/01/30 10:34:23;;;;;;;;;;;;;;;8.44;35.20;95226.38;5019632;28;1010;-48
2022/01/30 10:36:49;;;;;;;;;;;;;;;7.87;36.45;95226.38;5003365;28;3325;-48
2022/01/30 10:39:22;;;;;;;;;;;;;;;7.59;37.44;95220.97;4999979;28;1016;-47
2022/01/30 10:41:54;;;;;;;;;;;;;;;7.40;38.08;95225.28;4999105;28;1149;-48
2022/01/30 10:44:20;;;;;;;;;;;;;;;7.43;38.04;95230.31;4999539;28;1910;-48
2022/01/30 10:46:48;;;;;;;;;;;;;;;7.22;37.83;95230.44;4999447;28;1117;-48
2022/01/30 10:49:21;;;;;;;;;;;;;;;7.47;39.04;95214.91;4999913;28;1056;-49
2022/01/30 10:51:54;;;;;;;;;;;;;;;7.71;38.07;95201.19;4990303;28;1081;-49
2022/01/30 10:54:21;;;;;;;;;;;;;;;7.61;38.40;95187.91;4999786;28;1020;-48
2022/01/30 10:56:47;;;;;;;;;;;;;;;7.51;38.81;95178.22;4999457;28;1064;-49
2022/01/30 10:59:19;;;;;;;;;;;;;;;7.19;38.48;95177.56;4999869;28;1061;-49
2022/01/30 11:01:47;;;;;;;;;;;;;;;7.32;39.13;95185.25;4997014;28;1127;-49
2022/01/30 11:04:20;;;;;;;;;;;;;;;6.75;41.02;95179.72;4996608;28;1906;-54
2022/01/30 11:06:48;;;;;;;;;;;;;;;6.33;41.76;95169.28;5011298;28;1166;-49
2022/01/30 11:09:19;;;;;;;;;;;;;;;5.56;42.53;95170.56;4996475;28;1042;-49
2022/01/30 11:11:51;;;;;;;;;;;;;;;4.98;44.66;95163.00;4995789;28;1061;-49
2022/01/30 11:14:20;;;;;;;;;;;;;;;4.53;44.93;95130.53;4996613;28;1085;-49
2022/01/30 11:17:03;;;;;;;;;;;;;;;4.87;44.91;95140.03;4996083;28;1876;-48
2022/01/30 11:19:33;;;;;;;;;;;;;;;5.33;45.37;95150.44;4994043;28;1109;-47
2022/01/30 11:22:01;;;;;;;;;;;;;;;5.17;45.77;95140.28;4995856;28;1098;-48
2022/01/30 11:24:27;;;;;;;;;;;;;;;5.23;45.90;95145.06;4994765;28;2012;-48
2022/01/30 11:26:54;;;;;;;;;;;;;;;5.27;45.11;95130.59;4995953;28;1128;-48
2022/01/30 11:29:20;;;;;;;;;;;;;;;5.51;44.81;95129.50;4995451;28;978;-48
2022/01/30 11:31:47;;;;;;;;;;;;;;;5.00;45.13;95131.09;4995405;28;986;-48
2022/01/30 11:34:13;;;;;;;;;;;;;;;4.80;45.26;95111.53;4996029;28;1026;-48
2022/01/30 11:36:40;;;;;;;;;;;;;;;4.64;45.82;95094.25;4996104;28;1057;-47
2022/01/30 11:39:07;;;;;;;;;;;;;;;4.45;46.43;95091.44;4996136;28;981;-48
2022/01/30 11:41:34;;;;;;;;;;;;;;;4.48;47.42;95092.03;4995936;28;986;-48
2022/01/30 11:44:18;;;;;;;;;;;;;;;4.67;48.20;95082.59;4995578;28;2003;-48
2022/01/30 11:46:57;;;;;;;;;;;;;;;4.63;48.39;95073.19;4995533;28;963;-48
2022/01/30 11:49:39;;;;;;;;;;;;;;;4.71;48.94;95068.13;4995689;28;1151;-48
2022/01/30 11:52:14;;;;;;;;;;;;;;;4.67;48.16;95053.47;4995499;28;1030;-48
2022/01/30 11:54:42;;;;;;;;;;;;;;;4.50;47.83;95052.22;4995839;28;1044;-48
2022/01/30 11:57:27;;;;;;;;;;;;;;;4.58;48.25;95046.28;4995404;28;1149;-48
2022/01/30 11:59:54;;;;;;;;;;;;;;;4.67;48.55;95032.28;4995730;28;1074;-48
2022/01/30 12:02:27;;;;;;;;;;;;;;;4.67;48.56;95024.34;4995367;28;1975;-47
2022/01/30 12:05:00;;;;;;;;;;;;;;;5.06;47.78;95019.28;4995460;28;1942;-48
2022/01/30 12:07:35;;;;;;;;;;;;;;;5.18;47.85;95025.31;4995286;28;1975;-47
2022/01/30 12:10:20;;;;;;;;;;;;;;;4.93;47.90;95021.28;4995309;28;982;-47
2022/01/30 12:12:46;;;;;;;;;;;;;;;4.84;47.78;95031.69;4994855;28;1038;-47
2022/01/30 12:15:32;;;;;;;;;;;;;;;4.64;48.52;95014.81;4995113;28;1097;-47
2022/01/30 12:17:58;;;;;;;;;;;;;;;4.88;47.52;95006.63;4994911;28;1758;-48
2022/01/30 12:20:25;;;;;;;;;;;;;;;5.15;47.77;95017.66;4995047;28;986;-48
2022/01/30 12:22:52;;;;;;;;;;;;;;;5.30;46.76;95020.81;4994849;28;1042;-47
2022/01/30 12:25:20;;;;;;;;;;;;;;;5.34;46.89;95007.16;4994979;28;1910;-48
2022/01/30 12:27:50;;;;;;;;;;;;;;;5.56;47.11;95011.44;4994977;28;974;-48
2022/01/30 12:30:55;;;;;;;;;;;;;;;5.82;46.45;95013.59;4994980;28;998;-47
2022/01/30 12:33:32;;;;;;;;;;;;;;;6.01;44.26;95007.53;4973092;28;1415;-48
2022/01/30 12:35:59;;;;;;;;;;;;;;;5.56;45.63;95002.63;4973206;28;1045;-48
2022/01/30 12:38:34;;;;;;;;;;;;;;;5.08;47.50;95004.06;4984946;28;1118;-47
2022/01/30 12:41:12;;;;;;;;;;;;;;;4.94;47.71;94997.31;4994735;28;1117;-48
2022/01/30 12:43:38;;;;;;;;;;;;;;;4.81;48.94;94986.91;4994646;28;1993;-48
2022/01/30 12:46:07;;;;;;;;;;;;;;;4.99;48.70;94981.00;4994452;28;1236;-48
2022/01/30 12:48:33;;;;;;;;;;;;;;;4.86;47.56;94968.81;4994625;28;970;-48
2022/01/30 12:51:04;;;;;;;;;;;;;;;5.00;48.81;94983.53;4993400;28;1164;-48
2022/01/30 12:53:33;;;;;;;;;;;;;;;5.02;48.32;94984.25;4994528;28;1029;-48
2022/01/30 12:55:59;;;;;;;;;;;;;;;5.09;48.80;94960.72;4994385;28;1055;-48
2022/01/30 12:58:33;;;;;;;;;;;;;;;5.15;48.49;94968.13;4994296;28;1042;-48
2022/01/30 13:01:06;;;;;;;;;;;;;;;5.14;48.74;94973.56;4994318;28;1104;-47
2022/01/30 13:03:32;;;;;;;;;;;;;;;5.12;48.25;94973.69;4994349;28;1028;-48
2022/01/30 13:05:59;;;;;;;;;;;;;;;5.15;49.21;94964.66;4994178;28;1980;-49
2022/01/30 13:08:43;;;;;;;;;;;;;;;5.30;49.07;94981.03;4994130;28;1033;-48
2022/01/30 13:11:16;;;;;;;;;;;;;;;5.14;48.66;94977.06;4994111;28;1058;-48
2022/01/30 13:13:49;;;;;;;;;;;;;;;4.88;50.13;94990.72;4992713;28;1034;-47
2022/01/30 13:16:15;;;;;;;;;;;;;;;4.78;49.98;94992.50;4994227;28;1050;-47
2022/01/30 13:18:44;;;;;;;;;;;;;;;4.65;50.05;94975.94;4993973;28;974;-47
2022/01/30 13:21:10;;;;;;;;;;;;;;;4.69;48.76;94969.41;4994096;28;1117;-47
2022/01/30 13:23:36;;;;;;;;;;;;;;;4.77;49.45;94968.78;4994084;28;1914;-47
2022/01/30 13:26:02;;;;;;;;;;;;;;;4.77;48.02;94959.00;4993517;28;1080;-48
2022/01/30 13:28:30;;;;;;;;;;;;;;;4.81;48.14;94963.06;4992576;28;1034;-51
2022/01/30 13:31:10;;;;;;;;;;;;;;;4.77;48.65;94960.81;4994097;28;1065;-53
2022/01/30 13:33:37;;;;;;;;;;;;;;;4.79;49.76;94945.63;4992900;28;1046;-48
2022/01/30 13:36:03;;;;;;;;;;;;;;;4.76;49.43;94941.47;4993845;28;1116;-48
2022/01/30 13:38:29;;;;;;;;;;;;;;;4.82;48.90;94935.63;4993906;28;982;-52
2022/01/30 13:40:59;;;;;;;;;;;;;;;4.95;49.58;94931.91;4993999;28;1075;-48
2022/01/30 13:43:30;;;;;;;;;;;;;;;5.00;50.31;94945.59;4993628;28;1042;-48
2022/01/30 13:48:22;;;;;;;;;;;;;;;4.91;51.08;94943.75;4993647;28;1144;-48
2022/01/30 13:50:52;;;;;;;;;;;;;;;4.92;50.08;94935.66;4993651;28;1207;-47
2022/01/30 13:53:21;;;;;;;;;;;;;;;4.88;50.69;94934.25;4993846;28;1053;-47
2022/01/30 13:55:51;;;;;;;;;;;;;;;4.73;51.09;94931.09;4993788;28;1046;-48
2022/01/30 13:58:18;;;;;;;;;;;;;;;4.75;51.74;94939.75;4993586;28;1050;-47
2022/01/30 14:00:44;;;;;;;;;;;;;;;4.69;51.46;94935.00;4993511;28;1005;-47
2022/01/30 14:03:10;;;;;;;;;;;;;;;4.61;52.32;94925.06;4993933;28;995;-48
2022/01/30 14:05:40;;;;;;;;;;;;;;;4.62;52.51;94928.53;4993653;28;1993;-48
2022/01/30 14:08:14;;;;;;;;;;;;;;;4.58;52.24;94924.47;4993697;28;1111;-47
2022/01/30 14:10:40;;;;;;;;;;;;;;;4.67;52.95;94921.88;4993560;28;1013;-47
2022/01/30 14:13:08;;;;;;;;;;;;;;;4.71;52.18;94914.50;4993254;28;1128;-48
2022/01/30 14:15:36;;;;;;;;;;;;;;;4.69;51.77;94911.16;4993645;28;970;-48